sensor_id;sensor_type;location;lat;lon;timestamp;pressure;altitude;pressure_sealevel;temperature;humidity
43115;BME280;28727;50.068;14.452;2023-05-01T00:00:43;99619.13;;;9.21;55.29
43115;BME280;28727;50.068;14.452;2023-05-01T00:03:15;99618.53;;;9.10;55.92
43115;BME280;28727;50.068;14.452;2023-05-01T00:05:50;99619.69;;;9.07;56.60
43115;BME280;28727;50.068;14.452;2023-05-01T00:08:22;99621.63;;;9.05;57.10
43115;BME280;28727;50.068;14.452;2023-05-01T00:10:54;99616.50;;;9.03;57.05
43115;BME280;28727;50.068;14.452;2023-05-01T00:13:26;99619.97;;;9.04;56.96
43115;BME280;28727;50.068;14.452;2023-05-01T00:15:58;99620.28;;;9.01;57.66
43115;BME280;28727;50.068;14.452;2023-05-01T00:18:30;99613.34;;;9.00;57.66
43115;BME280;28727;50.068;14.452;2023-05-01T00:21:02;99609.22;;;8.97;57.35
43115;BME280;28727;50.068;14.452;2023-05-01T00:23:33;99608.69;;;8.94;57.58
43115;BME280;28727;50.068;14.452;2023-05-01T00:26:08;99608.16;;;8.90;57.30
43115;BME280;28727;50.068;14.452;2023-05-01T00:28:41;99606.66;;;8.88;57.94
43115;BME280;28727;50.068;14.452;2023-05-01T00:31:13;99605.16;;;8.85;57.72
43115;BME280;28727;50.068;14.452;2023-05-01T00:33:45;99604.31;;;8.85;58.74
43115;BME280;28727;50.068;14.452;2023-05-01T00:36:19;99607.13;;;8.83;58.23
43115;BME280;28727;50.068;14.452;2023-05-01T00:38:51;99602.16;;;8.80;58.40
43115;BME280;28727;50.068;14.452;2023-05-01T00:41:23;99597.84;;;8.79;58.25
43115;BME280;28727;50.068;14.452;2023-05-01T00:43:55;99596.50;;;8.75;58.32
43115;BME280;28727;50.068;14.452;2023-05-01T00:46:29;99596.97;;;8.71;58.26
43115;BME280;28727;50.068;14.452;2023-05-01T00:49:01;99594.63;;;8.68;58.78
43115;BME280;28727;50.068;14.452;2023-05-01T00:51:33;99592.13;;;8.66;59.69
43115;BME280;28727;50.068;14.452;2023-05-01T00:54:05;99593.13;;;8.65;59.40
43115;BME280;28727;50.068;14.452;2023-05-01T00:56:37;99580.25;;;8.62;59.56
43115;BME280;28727;50.068;14.452;2023-05-01T00:59:09;99583.50;;;8.56;59.66
43115;BME280;28727;50.068;14.452;2023-05-01T01:01:41;99586.72;;;8.50;59.88
43115;BME280;28727;50.068;14.452;2023-05-01T01:04:13;99576.50;;;8.47;59.33
43115;BME280;28727;50.068;14.452;2023-05-01T01:06:55;99573.31;;;8.43;60.10
43115;BME280;28727;50.068;14.452;2023-05-01T01:15:56;99576.16;;;8.32;60.46
43115;BME280;28727;50.068;14.452;2023-05-01T01:18:23;99567.03;;;8.27;61.30
43115;BME280;28727;50.068;14.452;2023-05-01T01:34:57;99569.19;;;8.13;62.08
43115;BME280;28727;50.068;14.452;2023-05-01T01:37:41;99565.06;;;8.11;62.03
43115;BME280;28727;50.068;14.452;2023-05-01T01:40:18;99565.22;;;8.09;62.27
43115;BME280;28727;50.068;14.452;2023-05-01T01:43:01;99562.72;;;8.08;62.55
43115;BME280;28727;50.068;14.452;2023-05-01T01:45:39;99568.44;;;8.03;62.49
43115;BME280;28727;50.068;14.452;2023-05-01T01:48:16;99560.69;;;8.02;62.44
43115;BME280;28727;50.068;14.452;2023-05-01T01:50:49;99561.00;;;7.99;62.32
43115;BME280;28727;50.068;14.452;2023-05-01T01:53:24;99548.94;;;7.96;62.88
43115;BME280;28727;50.068;14.452;2023-05-01T01:55:58;99553.81;;;7.91;63.22
43115;BME280;28727;50.068;14.452;2023-05-01T01:58:35;99560.03;;;7.90;62.96
43115;BME280;28727;50.068;14.452;2023-05-01T02:01:09;99552.47;;;7.87;62.91
43115;BME280;28727;50.068;14.452;2023-05-01T02:03:42;99555.53;;;7.82;63.21
43115;BME280;28727;50.068;14.452;2023-05-01T02:06:16;99551.38;;;7.80;63.57
43115;BME280;28727;50.068;14.452;2023-05-01T02:08:49;99554.47;;;7.75;63.72
43115;BME280;28727;50.068;14.452;2023-05-01T02:11:23;99551.97;;;7.74;63.84
43115;BME280;28727;50.068;14.452;2023-05-01T02:13:58;99551.44;;;7.70;63.75
43115;BME280;28727;50.068;14.452;2023-05-01T02:16:33;99545.63;;;7.67;64.43
43115;BME280;28727;50.068;14.452;2023-05-01T02:19:05;99538.72;;;7.66;63.81
43115;BME280;28727;50.068;14.452;2023-05-01T02:21:38;99544.81;;;7.66;64.46
43115;BME280;28727;50.068;14.452;2023-05-01T02:24:11;99538.06;;;7.64;64.11
43115;BME280;28727;50.068;14.452;2023-05-01T02:26:48;99537.34;;;7.62;64.09
43115;BME280;28727;50.068;14.452;2023-05-01T02:29:20;99531.28;;;7.61;63.78
43115;BME280;28727;50.068;14.452;2023-05-01T02:31:53;99527.97;;;7.59;63.85
43115;BME280;28727;50.068;14.452;2023-05-01T02:34:25;99526.47;;;7.57;63.96
43115;BME280;28727;50.068;14.452;2023-05-01T02:36:57;99529.66;;;7.51;64.24
43115;BME280;28727;50.068;14.452;2023-05-01T02:39:29;99522.09;;;7.48;65.12
43115;BME280;28727;50.068;14.452;2023-05-01T02:42:02;99521.38;;;7.46;64.21
43115;BME280;28727;50.068;14.452;2023-05-01T02:44:39;99522.50;;;7.43;64.95
43115;BME280;28727;50.068;14.452;2023-05-01T02:47:16;99525.28;;;7.42;64.95
43115;BME280;28727;50.068;14.452;2023-05-01T02:49:50;99524.28;;;7.43;65.04
43115;BME280;28727;50.068;14.452;2023-05-01T02:52:24;99521.97;;;7.39;64.95
43115;BME280;28727;50.068;14.452;2023-05-01T02:55:12;99524.06;;;7.36;64.94
43115;BME280;28727;50.068;14.452;2023-05-01T02:57:44;99519.91;;;7.33;64.73
43115;BME280;28727;50.068;14.452;2023-05-01T03:00:19;99512.88;;;7.34;65.11
43115;BME280;28727;50.068;14.452;2023-05-01T03:02:51;99514.66;;;7.33;65.49
43115;BME280;28727;50.068;14.452;2023-05-01T03:05:23;99511.34;;;7.31;65.62
43115;BME280;28727;50.068;14.452;2023-05-01T03:07:54;99512.31;;;7.30;65.04
43115;BME280;28727;50.068;14.452;2023-05-01T03:10:26;99514.41;;;7.27;65.21
43115;BME280;28727;50.068;14.452;2023-05-01T03:12:58;99518.69;;;7.28;65.70
43115;BME280;28727;50.068;14.452;2023-05-01T03:15:30;99516.50;;;7.23;65.90
43115;BME280;28727;50.068;14.452;2023-05-01T03:18:03;99507.09;;;7.21;66.02
43115;BME280;28727;50.068;14.452;2023-05-01T03:20:35;99507.22;;;7.19;66.13
43115;BME280;28727;50.068;14.452;2023-05-01T03:23:07;99508.06;;;7.20;66.52
43115;BME280;28727;50.068;14.452;2023-05-01T03:25:42;99508.06;;;7.20;66.62
43115;BME280;28727;50.068;14.452;2023-05-01T03:28:13;99503.09;;;7.17;66.71
43115;BME280;28727;50.068;14.452;2023-05-01T03:30:46;99512.78;;;7.16;66.84
43115;BME280;28727;50.068;14.452;2023-05-01T03:33:18;99508.50;;;7.15;66.98
43115;BME280;28727;50.068;14.452;2023-05-01T03:36:01;99502.72;;;7.12;67.69
43115;BME280;28727;50.068;14.452;2023-05-01T03:38:35;99504.50;;;7.11;67.73
43115;BME280;28727;50.068;14.452;2023-05-01T03:41:13;99501.88;;;7.11;66.95
43115;BME280;28727;50.068;14.452;2023-05-01T03:44:03;99499.25;;;7.11;66.00
43115;BME280;28727;50.068;14.452;2023-05-01T03:46:40;99500.50;;;7.07;65.69
43115;BME280;28727;50.068;14.452;2023-05-01T03:49:17;99500.09;;;7.02;66.07
43115;BME280;28727;50.068;14.452;2023-05-01T03:51:51;99489.75;;;7.01;66.45
43115;BME280;28727;50.068;14.452;2023-05-01T03:54:23;99493.88;;;7.03;66.07
43115;BME280;28727;50.068;14.452;2023-05-01T03:57:05;99494.44;;;7.07;66.01
43115;BME280;28727;50.068;14.452;2023-05-01T03:59:39;99496.06;;;7.08;66.18
43115;BME280;28727;50.068;14.452;2023-05-01T04:02:15;99493.31;;;7.09;66.14
43115;BME280;28727;50.068;14.452;2023-05-01T04:04:49;99493.59;;;7.06;65.93
43115;BME280;28727;50.068;14.452;2023-05-01T04:07:24;99495.09;;;7.09;65.64
43115;BME280;28727;50.068;14.452;2023-05-01T04:09:56;99495.78;;;7.11;65.50
43115;BME280;28727;50.068;14.452;2023-05-01T04:12:28;99500.75;;;7.14;65.30
43115;BME280;28727;50.068;14.452;2023-05-01T04:14:59;99494.25;;;7.18;65.08
43115;BME280;28727;50.068;14.452;2023-05-01T04:17:32;99491.19;;;7.22;65.21
43115;BME280;28727;50.068;14.452;2023-05-01T04:20:04;99488.56;;;7.22;64.95
43115;BME280;28727;50.068;14.452;2023-05-01T04:22:37;99496.97;;;7.26;64.69
43115;BME280;28727;50.068;14.452;2023-05-01T04:25:09;99492.13;;;7.31;64.37
43115;BME280;28727;50.068;14.452;2023-05-01T04:27:45;99494.16;;;7.37;64.26
43115;BME280;28727;50.068;14.452;2023-05-01T04:30:18;99487.50;;;7.43;64.26
43115;BME280;28727;50.068;14.452;2023-05-01T04:32:50;99492.75;;;7.43;64.26
43115;BME280;28727;50.068;14.452;2023-05-01T04:35:22;99502.69;;;7.49;64.04
43115;BME280;28727;50.068;14.452;2023-05-01T04:37:57;99500.63;;;7.52;64.55
43115;BME280;28727;50.068;14.452;2023-05-01T04:40:29;99500.47;;;7.54;64.45
43115;BME280;28727;50.068;14.452;2023-05-01T04:43:02;99499.06;;;7.59;63.96
43115;BME280;28727;50.068;14.452;2023-05-01T04:45:37;99496.50;;;7.67;63.85
43115;BME280;28727;50.068;14.452;2023-05-01T04:48:09;99496.16;;;7.80;63.28
43115;BME280;28727;50.068;14.452;2023-05-01T04:50:41;99490.56;;;7.93;63.06
43115;BME280;28727;50.068;14.452;2023-05-01T04:53:13;99495.31;;;8.07;63.05
43115;BME280;28727;50.068;14.452;2023-05-01T04:55:46;99506.75;;;8.15;62.96
43115;BME280;28727;50.068;14.452;2023-05-01T04:58:19;99504.34;;;8.22;62.86
43115;BME280;28727;50.068;14.452;2023-05-01T05:00:55;99497.50;;;8.29;62.39
43115;BME280;28727;50.068;14.452;2023-05-01T05:03:27;99506.09;;;8.31;61.96
43115;BME280;28727;50.068;14.452;2023-05-01T05:06:00;99504.47;;;8.30;61.94
43115;BME280;28727;50.068;14.452;2023-05-01T05:08:32;99505.03;;;8.24;61.92
43115;BME280;28727;50.068;14.452;2023-05-01T05:11:12;99506.81;;;8.23;62.23
43115;BME280;28727;50.068;14.452;2023-05-01T05:13:52;99504.56;;;8.29;61.51
43115;BME280;28727;50.068;14.452;2023-05-01T05:16:24;99512.41;;;8.38;61.35
43115;BME280;28727;50.068;14.452;2023-05-01T05:18:56;99500.91;;;8.39;61.25
43115;BME280;28727;50.068;14.452;2023-05-01T05:21:31;99505.09;;;8.50;61.62
43115;BME280;28727;50.068;14.452;2023-05-01T05:24:05;99501.25;;;8.62;60.84
43115;BME280;28727;50.068;14.452;2023-05-01T05:26:37;99504.09;;;8.86;60.59
43115;BME280;28727;50.068;14.452;2023-05-01T05:29:09;99503.47;;;9.18;60.02
43115;BME280;28727;50.068;14.452;2023-05-01T05:31:45;99495.03;;;9.49;58.92
43115;BME280;28727;50.068;14.452;2023-05-01T05:34:18;99500.31;;;9.82;57.71
43115;BME280;28727;50.068;14.452;2023-05-01T05:36:50;99498.38;;;10.09;57.38
43115;BME280;28727;50.068;14.452;2023-05-01T05:39:26;99501.75;;;10.43;56.65
43115;BME280;28727;50.068;14.452;2023-05-01T05:41:58;99499.28;;;10.82;55.87
43115;BME280;28727;50.068;14.452;2023-05-01T05:44:30;99497.88;;;11.27;54.95
43115;BME280;28727;50.068;14.452;2023-05-01T05:47:03;99499.44;;;11.52;52.51
43115;BME280;28727;50.068;14.452;2023-05-01T05:49:36;99500.28;;;11.53;52.18
43115;BME280;28727;50.068;14.452;2023-05-01T05:52:08;99498.16;;;11.40;52.46
43115;BME280;28727;50.068;14.452;2023-05-01T05:54:42;99492.06;;;11.39;52.35
43115;BME280;28727;50.068;14.452;2023-05-01T05:57:14;99492.06;;;11.39;52.13
43115;BME280;28727;50.068;14.452;2023-05-01T05:59:51;99490.97;;;11.65;51.44
43115;BME280;28727;50.068;14.452;2023-05-01T06:02:27;99494.00;;;11.93;50.79
43115;BME280;28727;50.068;14.452;2023-05-01T06:05:00;99490.91;;;12.12;50.27
43115;BME280;28727;50.068;14.452;2023-05-01T06:07:32;99486.28;;;12.37;50.01
43115;BME280;28727;50.068;14.452;2023-05-01T06:10:07;99487.00;;;12.68;48.69
43115;BME280;28727;50.068;14.452;2023-05-01T06:12:39;99483.53;;;13.05;48.39
43115;BME280;28727;50.068;14.452;2023-05-01T06:15:18;99484.03;;;13.38;47.86
43115;BME280;28727;50.068;14.452;2023-05-01T06:17:56;99478.38;;;13.41;47.13
43115;BME280;28727;50.068;14.452;2023-05-01T06:20:29;99478.09;;;13.36;47.21
43115;BME280;28727;50.068;14.452;2023-05-01T06:23:01;99478.09;;;13.36;47.20
43115;BME280;28727;50.068;14.452;2023-05-01T06:25:43;99474.16;;;13.46;46.31
43115;BME280;28727;50.068;14.452;2023-05-01T06:28:15;99473.69;;;13.72;45.58
43115;BME280;28727;50.068;14.452;2023-05-01T06:30:47;99474.28;;;13.89;44.98
43115;BME280;28727;50.068;14.452;2023-05-01T06:33:21;99460.56;;;14.43;44.30
43115;BME280;28727;50.068;14.452;2023-05-01T06:36:05;99455.75;;;14.81;43.13
43115;BME280;28727;50.068;14.452;2023-05-01T06:38:37;99458.97;;;15.04;42.26
43115;BME280;28727;50.068;14.452;2023-05-01T06:41:09;99456.59;;;15.15;41.89
43115;BME280;28727;50.068;14.452;2023-05-01T06:43:40;99451.44;;;15.07;41.67
43115;BME280;28727;50.068;14.452;2023-05-01T06:46:12;99449.44;;;15.16;41.81
43115;BME280;28727;50.068;14.452;2023-05-01T06:48:44;99447.50;;;15.38;40.95
43115;BME280;28727;50.068;14.452;2023-05-01T06:51:18;99441.94;;;15.67;40.73
43115;BME280;28727;50.068;14.452;2023-05-01T06:53:50;99439.53;;;15.72;40.88
43115;BME280;28727;50.068;14.452;2023-05-01T06:56:22;99432.97;;;15.81;40.09
43115;BME280;28727;50.068;14.452;2023-05-01T06:58:53;99432.75;;;15.70;40.47
43115;BME280;28727;50.068;14.452;2023-05-01T07:01:25;99435.91;;;16.06;39.77
43115;BME280;28727;50.068;14.452;2023-05-01T07:03:57;99433.28;;;16.39;38.60
43115;BME280;28727;50.068;14.452;2023-05-01T07:06:29;99427.16;;;16.52;38.47
43115;BME280;28727;50.068;14.452;2023-05-01T07:09:03;99429.41;;;16.42;38.59
43115;BME280;28727;50.068;14.452;2023-05-01T07:11:37;99427.16;;;16.25;38.62
43115;BME280;28727;50.068;14.452;2023-05-01T07:14:09;99421.00;;;16.58;38.94
43115;BME280;28727;50.068;14.452;2023-05-01T07:16:41;99420.13;;;17.10;37.63
43115;BME280;28727;50.068;14.452;2023-05-01T07:19:13;99417.25;;;17.25;37.16
43115;BME280;28727;50.068;14.452;2023-05-01T07:21:45;99414.44;;;16.93;38.02
43115;BME280;28727;50.068;14.452;2023-05-01T07:24:17;99413.53;;;17.26;37.24
43115;BME280;28727;50.068;14.452;2023-05-01T07:26:48;99407.53;;;17.43;36.52
43115;BME280;28727;50.068;14.452;2023-05-01T07:29:22;99397.06;;;17.86;36.17
43115;BME280;28727;50.068;14.452;2023-05-01T07:31:54;99393.31;;;18.25;35.28
43115;BME280;28727;50.068;14.452;2023-05-01T07:34:26;99389.78;;;18.31;35.11
43115;BME280;28727;50.068;14.452;2023-05-01T07:36:58;99392.09;;;18.46;35.33
43115;BME280;28727;50.068;14.452;2023-05-01T07:39:30;99385.41;;;18.37;34.48
43115;BME280;28727;50.068;14.452;2023-05-01T07:42:01;99392.63;;;18.05;33.97
43115;BME280;28727;50.068;14.452;2023-05-01T07:44:33;99384.09;;;17.90;34.25
43115;BME280;28727;50.068;14.452;2023-05-01T07:47:05;99377.41;;;17.68;34.06
43115;BME280;28727;50.068;14.452;2023-05-01T07:49:37;99374.97;;;17.97;32.75
43115;BME280;28727;50.068;14.452;2023-05-01T07:52:09;99381.38;;;17.96;32.49
43115;BME280;28727;50.068;14.452;2023-05-01T07:54:41;99371.41;;;17.79;34.09
43115;BME280;28727;50.068;14.452;2023-05-01T07:57:16;99381.16;;;17.67;34.81
43115;BME280;28727;50.068;14.452;2023-05-01T07:59:52;99368.66;;;17.92;35.08
43115;BME280;28727;50.068;14.452;2023-05-01T08:02:25;99362.09;;;18.19;34.27
43115;BME280;28727;50.068;14.452;2023-05-01T08:04:57;99373.50;;;18.33;34.22
43115;BME280;28727;50.068;14.452;2023-05-01T08:07:29;99369.94;;;18.39;33.40
43115;BME280;28727;50.068;14.452;2023-05-01T08:10:01;99359.34;;;18.51;33.45
43115;BME280;28727;50.068;14.452;2023-05-01T08:12:33;99362.28;;;19.10;33.19
43115;BME280;28727;50.068;14.452;2023-05-01T08:15:06;99351.09;;;19.50;32.81
43115;BME280;28727;50.068;14.452;2023-05-01T08:17:38;99355.44;;;19.92;32.38
43115;BME280;28727;50.068;14.452;2023-05-01T08:20:10;99347.09;;;20.00;31.83
43115;BME280;28727;50.068;14.452;2023-05-01T08:22:42;99337.94;;;19.78;32.10
43115;BME280;28727;50.068;14.452;2023-05-01T08:25:14;99339.34;;;19.92;32.45
43115;BME280;28727;50.068;14.452;2023-05-01T08:27:46;99331.97;;;19.76;32.49
43115;BME280;28727;50.068;14.452;2023-05-01T08:30:18;99337.91;;;19.67;32.55
43115;BME280;28727;50.068;14.452;2023-05-01T08:32:50;99332.31;;;19.80;32.46
43115;BME280;28727;50.068;14.452;2023-05-01T08:35:22;99327.50;;;20.12;32.13
43115;BME280;28727;50.068;14.452;2023-05-01T08:37:54;99324.53;;;20.66;30.94
43115;BME280;28727;50.068;14.452;2023-05-01T08:40:31;99321.06;;;20.42;31.65
43115;BME280;28727;50.068;14.452;2023-05-01T08:43:04;99323.09;;;20.29;31.14
43115;BME280;28727;50.068;14.452;2023-05-01T08:45:35;99324.44;;;20.61;30.27
43115;BME280;28727;50.068;14.452;2023-05-01T08:48:09;99317.28;;;20.90;30.04
43115;BME280;28727;50.068;14.452;2023-05-01T08:50:44;99318.44;;;20.82;29.87
43115;BME280;28727;50.068;14.452;2023-05-01T08:53:17;99314.34;;;20.80;30.04
43115;BME280;28727;50.068;14.452;2023-05-01T08:55:50;99312.94;;;21.01;30.19
43115;BME280;28727;50.068;14.452;2023-05-01T08:58:24;99302.63;;;21.09;30.22
43115;BME280;28727;50.068;14.452;2023-05-01T09:00:57;99300.41;;;20.55;30.36
43115;BME280;28727;50.068;14.452;2023-05-01T09:03:32;99293.59;;;20.17;31.35
43115;BME280;28727;50.068;14.452;2023-05-01T09:06:04;99300.63;;;20.65;31.55
43115;BME280;28727;50.068;14.452;2023-05-01T09:08:36;99299.22;;;20.51;30.37
43115;BME280;28727;50.068;14.452;2023-05-01T09:11:10;99286.25;;;20.24;30.63
43115;BME280;28727;50.068;14.452;2023-05-01T09:13:45;99291.75;;;20.41;29.97
43115;BME280;28727;50.068;14.452;2023-05-01T09:16:18;99278.31;;;20.29;30.52
43115;BME280;28727;50.068;14.452;2023-05-01T09:18:50;99284.00;;;20.10;31.09
43115;BME280;28727;50.068;14.452;2023-05-01T09:21:22;99286.25;;;20.24;30.51
43115;BME280;28727;50.068;14.452;2023-05-01T09:23:56;99280.66;;;20.14;30.70
43115;BME280;28727;50.068;14.452;2023-05-01T09:26:28;99279.94;;;20.19;30.52
43115;BME280;28727;50.068;14.452;2023-05-01T09:28:59;99273.91;;;20.47;30.50
43115;BME280;28727;50.068;14.452;2023-05-01T09:31:33;99267.50;;;20.36;31.23
43115;BME280;28727;50.068;14.452;2023-05-01T09:34:05;99267.94;;;20.56;30.98
43115;BME280;28727;50.068;14.452;2023-05-01T09:36:38;99260.69;;;20.57;30.04
43115;BME280;28727;50.068;14.452;2023-05-01T09:39:21;99260.13;;;20.66;30.13
43115;BME280;28727;50.068;14.452;2023-05-01T09:41:54;99253.47;;;20.46;30.46
43115;BME280;28727;50.068;14.452;2023-05-01T09:44:26;99251.94;;;20.73;30.54
43115;BME280;28727;50.068;14.452;2023-05-01T09:46:58;99250.25;;;20.95;29.92
43115;BME280;28727;50.068;14.452;2023-05-01T09:49:43;99251.25;;;21.06;30.01
43115;BME280;28727;50.068;14.452;2023-05-01T09:52:16;99246.69;;;21.18;29.83
43115;BME280;28727;50.068;14.452;2023-05-01T09:54:47;99238.34;;;21.31;29.75
43115;BME280;28727;50.068;14.452;2023-05-01T09:57:34;99235.44;;;21.49;29.49
43115;BME280;28727;50.068;14.452;2023-05-01T10:00:06;99232.78;;;21.66;29.69
43115;BME280;28727;50.068;14.452;2023-05-01T10:02:41;99222.91;;;21.88;29.17
43115;BME280;28727;50.068;14.452;2023-05-01T10:05:14;99228.53;;;21.70;29.31
43115;BME280;28727;50.068;14.452;2023-05-01T10:07:59;99231.09;;;21.32;30.11
43115;BME280;28727;50.068;14.452;2023-05-01T10:10:32;99232.19;;;21.19;30.42
43115;BME280;28727;50.068;14.452;2023-05-01T10:13:17;99235.38;;;21.04;29.70
43115;BME280;28727;50.068;14.452;2023-05-01T10:15:49;99234.44;;;20.70;29.71
43115;BME280;28727;50.068;14.452;2023-05-01T10:18:21;99226.28;;;20.65;29.82
43115;BME280;28727;50.068;14.452;2023-05-01T10:20:54;99219.16;;;20.59;30.38
43115;BME280;28727;50.068;14.452;2023-05-01T10:23:25;99218.97;;;20.89;30.77
43115;BME280;28727;50.068;14.452;2023-05-01T10:26:00;99212.88;;;20.94;31.26
43115;BME280;28727;50.068;14.452;2023-05-01T10:28:35;99212.44;;;20.85;29.92
43115;BME280;28727;50.068;14.452;2023-05-01T10:31:09;99203.72;;;20.78;29.26
43115;BME280;28727;50.068;14.452;2023-05-01T10:33:44;99193.19;;;20.76;29.77
43115;BME280;28727;50.068;14.452;2023-05-01T10:36:24;99186.41;;;20.46;30.60
43115;BME280;28727;50.068;14.452;2023-05-01T10:38:56;99175.22;;;20.25;30.53
43115;BME280;28727;50.068;14.452;2023-05-01T10:42:01;99167.22;;;20.65;30.53
43115;BME280;28727;50.068;14.452;2023-05-01T10:44:36;99174.28;;;20.83;30.80
43115;BME280;28727;50.068;14.452;2023-05-01T10:50:21;99163.41;;;21.18;29.60
43115;BME280;28727;50.068;14.452;2023-05-01T10:55:45;99154.84;;;20.93;30.00
43115;BME280;28727;50.068;14.452;2023-05-01T11:01:30;99150.38;;;20.98;29.96
43115;BME280;28727;50.068;14.452;2023-05-01T11:04:03;99135.13;;;21.15;29.80
43115;BME280;28727;50.068;14.452;2023-05-01T11:06:35;99133.50;;;20.86;29.93
43115;BME280;28727;50.068;14.452;2023-05-01T11:12:10;99136.94;;;20.98;29.97
43115;BME280;28727;50.068;14.452;2023-05-01T11:22:56;99103.00;;;21.09;29.85
43115;BME280;28727;50.068;14.452;2023-05-01T11:25:29;99108.84;;;21.17;29.84
43115;BME280;28727;50.068;14.452;2023-05-01T11:28:02;99099.75;;;21.35;29.92
43115;BME280;28727;50.068;14.452;2023-05-01T11:30:38;99086.22;;;21.47;29.87
43115;BME280;28727;50.068;14.452;2023-05-01T11:33:11;99074.25;;;21.38;30.21
43115;BME280;28727;50.068;14.452;2023-05-01T11:35:43;99077.59;;;21.28;29.76
43115;BME280;28727;50.068;14.452;2023-05-01T11:38:16;99074.13;;;20.99;29.24
43115;BME280;28727;50.068;14.452;2023-05-01T11:40:59;99063.03;;;20.79;30.52
43115;BME280;28727;50.068;14.452;2023-05-01T11:43:31;99056.47;;;21.03;30.70
43115;BME280;28727;50.068;14.452;2023-05-01T11:46:03;99058.91;;;21.05;30.48
43115;BME280;28727;50.068;14.452;2023-05-01T11:48:38;99054.59;;;21.04;30.29
43115;BME280;28727;50.068;14.452;2023-05-01T11:51:11;99055.81;;;21.13;30.40
43115;BME280;28727;50.068;14.452;2023-05-01T11:53:59;99044.44;;;21.22;29.49
43115;BME280;28727;50.068;14.452;2023-05-01T11:56:33;99067.00;;;21.38;29.32
43115;BME280;28727;50.068;14.452;2023-05-01T11:59:14;99043.84;;;21.04;29.87
43115;BME280;28727;50.068;14.452;2023-05-01T12:01:49;99039.19;;;20.82;30.62
43115;BME280;28727;50.068;14.452;2023-05-01T12:04:23;99028.22;;;20.84;30.83
43115;BME280;28727;50.068;14.452;2023-05-01T12:06:57;99031.41;;;21.14;30.54
43115;BME280;28727;50.068;14.452;2023-05-01T12:09:30;99026.75;;;21.27;30.04
43115;BME280;28727;50.068;14.452;2023-05-01T12:12:03;99014.56;;;21.36;30.16
43115;BME280;28727;50.068;14.452;2023-05-01T12:14:35;99012.84;;;21.30;29.79
43115;BME280;28727;50.068;14.452;2023-05-01T12:17:07;99005.09;;;21.33;29.68
43115;BME280;28727;50.068;14.452;2023-05-01T12:19:46;99004.28;;;21.33;29.79
43115;BME280;28727;50.068;14.452;2023-05-01T12:22:19;99006.28;;;21.20;30.03
43115;BME280;28727;50.068;14.452;2023-05-01T12:24:52;98986.97;;;21.23;30.28
43115;BME280;28727;50.068;14.452;2023-05-01T12:27:24;98973.44;;;21.35;30.07
43115;BME280;28727;50.068;14.452;2023-05-01T12:29:56;98981.44;;;21.52;29.85
43115;BME280;28727;50.068;14.452;2023-05-01T12:32:30;98974.72;;;21.33;29.81
43115;BME280;28727;50.068;14.452;2023-05-01T12:35:15;98969.34;;;21.33;29.68
43115;BME280;28727;50.068;14.452;2023-05-01T12:37:46;98977.19;;;21.34;30.21
43115;BME280;28727;50.068;14.452;2023-05-01T12:40:19;98968.31;;;21.34;29.59
43115;BME280;28727;50.068;14.452;2023-05-01T12:42:56;98946.81;;;21.34;30.12
43115;BME280;28727;50.068;14.452;2023-05-01T12:45:28;98957.19;;;21.47;29.88
43115;BME280;28727;50.068;14.452;2023-05-01T12:48:00;98952.22;;;21.55;29.77
43115;BME280;28727;50.068;14.452;2023-05-01T12:50:36;98942.34;;;21.61;30.66
43115;BME280;28727;50.068;14.452;2023-05-01T12:53:08;98942.81;;;21.80;29.87
43115;BME280;28727;50.068;14.452;2023-05-01T12:55:45;98967.59;;;21.82;29.55
43115;BME280;28727;50.068;14.452;2023-05-01T12:58:17;98918.50;;;21.70;29.94
43115;BME280;28727;50.068;14.452;2023-05-01T13:00:54;98919.38;;;21.75;30.19
43115;BME280;28727;50.068;14.452;2023-05-01T13:03:27;98920.44;;;21.96;30.25
43115;BME280;28727;50.068;14.452;2023-05-01T13:06:02;98909.69;;;21.96;30.32
43115;BME280;28727;50.068;14.452;2023-05-01T13:08:37;98915.91;;;21.80;29.65
43115;BME280;28727;50.068;14.452;2023-05-01T13:11:16;98913.75;;;21.77;30.33
43115;BME280;28727;50.068;14.452;2023-05-01T13:13:48;98916.53;;;21.87;29.94
43115;BME280;28727;50.068;14.452;2023-05-01T13:16:20;98907.56;;;21.76;29.54
43115;BME280;28727;50.068;14.452;2023-05-01T13:18:53;98898.56;;;21.65;29.91
43115;BME280;28727;50.068;14.452;2023-05-01T13:21:25;98897.03;;;21.75;29.74
43115;BME280;28727;50.068;14.452;2023-05-01T13:23:59;98912.94;;;21.54;29.89
43115;BME280;28727;50.068;14.452;2023-05-01T13:26:34;98923.59;;;21.28;30.72
43115;BME280;28727;50.068;14.452;2023-05-01T13:29:13;98913.97;;;20.93;31.19
43115;BME280;28727;50.068;14.452;2023-05-01T13:31:45;98906.59;;;20.83;31.80
43115;BME280;28727;50.068;14.452;2023-05-01T13:34:23;98919.22;;;21.05;31.26
43115;BME280;28727;50.068;14.452;2023-05-01T13:36:56;98915.81;;;21.09;31.29
43115;BME280;28727;50.068;14.452;2023-05-01T13:39:31;98922.84;;;20.94;31.28
43115;BME280;28727;50.068;14.452;2023-05-01T13:42:04;98913.00;;;20.82;31.48
43115;BME280;28727;50.068;14.452;2023-05-01T13:44:45;98893.09;;;20.78;31.94
43115;BME280;28727;50.068;14.452;2023-05-01T13:47:18;98905.63;;;20.73;31.89
43115;BME280;28727;50.068;14.452;2023-05-01T13:49:50;98887.47;;;20.63;32.42
43115;BME280;28727;50.068;14.452;2023-05-01T13:52:22;98885.66;;;20.69;32.05
43115;BME280;28727;50.068;14.452;2023-05-01T13:54:55;98884.28;;;20.83;32.36
43115;BME280;28727;50.068;14.452;2023-05-01T13:57:29;98877.31;;;21.04;32.45
43115;BME280;28727;50.068;14.452;2023-05-01T14:00:02;98897.72;;;21.21;32.13
43115;BME280;28727;50.068;14.452;2023-05-01T14:02:45;98896.03;;;21.15;32.27
43115;BME280;28727;50.068;14.452;2023-05-01T14:05:28;98880.41;;;21.12;31.89
43115;BME280;28727;50.068;14.452;2023-05-01T14:08:00;98885.13;;;21.05;32.49
43115;BME280;28727;50.068;14.452;2023-05-01T14:10:32;98871.22;;;21.08;32.49